Time;durP1;ratioP1;P1;durP2;ratioP2;P2;SDS_P1;SDS_P2;PMS_P1;PMS_P2;Temp;Humidity;BMP_temperature;BMP_pressure;BME280_temperature;BME280_humidity;BME280_pressure;Samples;Min_cycle;Max_cycle;Signal;HPM_P1;HPM_P2
2022/08/09 00:00:20;;;;;;;2.47;1.10;;;;;;;19.50;40.65;98659.53;4885954;29;20603;-74
2022/08/09 00:02:53;;;;;;;2.95;1.10;;;;;;;19.52;41.25;98668.22;4924825;29;20047;-74
2022/08/09 00:05:22;;;;;;;2.80;1.30;;;;;;;19.53;41.59;98664.31;4923742;28;20094;-74
2022/08/09 00:08:14;;;;;;;4.47;1.80;;;;;;;19.50;41.87;98664.25;4906107;29;20995;-74
2022/08/09 00:11:04;;;;;;;3.20;1.98;;;;;;;19.36;42.04;98659.91;4902674;29;20441;-74
2022/08/09 00:13:52;;;;;;;5.23;1.83;;;;;;;19.39;42.38;98666.69;4911977;29;20413;-74
2022/08/09 00:16:22;;;;;;;;;;;;;;;19.28;42.53;98669.16;4971051;28;20132;-74
2022/08/09 00:19:18;;;;;;;;;;;;;;;19.13;42.36;98667.13;4998170;28;20360;-74
2022/08/09 00:21:48;;;;;;;;;;;;;;;19.02;42.56;98666.81;4933021;29;20405;-74
2022/08/09 00:24:24;;;;;;;;;;;;;;;19.06;42.23;98662.19;4914519;29;19922;-74
2022/08/09 00:26:58;;;;;;;;;;;;;;;19.11;42.16;98666.66;4921212;29;19930;-74
2022/08/09 00:29:52;;;;;;;;;;;;;;;19.17;42.28;98668.03;4936349;29;19934;-74
2022/08/09 00:32:40;;;;;;;;;;;;;;;19.18;42.12;98666.09;4935899;28;20005;-74
2022/08/09 00:35:09;;;;;;;;;;;;;;;19.14;42.05;98663.22;4920210;29;20065;-75
2022/08/09 00:37:42;;;;;;;;;;;;;;;19.17;42.50;98665.25;4922401;29;19930;-75
2022/08/09 00:40:12;;;;;;;;;;;;;;;19.19;42.25;98667.69;4968436;28;20454;-75
2022/08/09 00:42:43;;;;;;;;;;;;;;;19.10;42.13;98663.13;4978502;28;19925;-75
2022/08/09 00:45:34;;;;;;;;;;;;;;;19.02;42.25;98666.03;4992628;28;19928;-75
2022/08/09 00:48:02;;;;;;;;;;;;;;;18.98;42.87;98667.88;4993776;28;20020;-75
2022/08/09 00:50:29;;;;;;;;;;;;;;;18.80;42.74;98670.06;4995722;28;19921;-74
2022/08/09 00:52:58;;;;;;;;;;;;;;;18.86;42.49;98673.41;4995836;28;20450;-74
2022/08/09 00:55:28;;;;;;;;;;;;;;;18.87;42.65;98675.00;4976636;28;19922;-75
2022/08/09 00:58:16;;;;;;;;;;;;;;;18.82;42.80;98676.03;4968846;28;20041;-74
2022/08/09 01:00:53;;;;;;;;;;;;;;;18.82;43.11;98674.09;4991406;28;20442;-75
2022/08/09 01:03:23;;;;;;;;;;;;;;;18.81;43.05;98678.00;4970408;28;19961;-74
2022/08/09 01:05:59;;;;;;;;;;;;;;;18.68;43.30;98667.34;4995837;28;19922;-75
2022/08/09 01:08:33;;;;;;;;;;;;;;;18.70;43.19;98670.56;4976567;28;19925;-75
2022/08/09 01:11:07;;;;;;;;;;;;;;;18.68;43.29;98672.84;4977034;28;20392;-75
2022/08/09 01:13:40;;;;;;;2.70;1.00;;;;;;;18.58;43.25;98677.63;4973114;28;19922;-76
2022/08/09 01:16:57;;;;;;;2.58;1.15;;;;;;;18.60;43.49;98669.06;4992894;28;20054;-75
2022/08/09 01:19:40;;;;;;;2.35;1.20;;;;;;;18.56;43.94;98677.19;4979018;28;20052;-75
2022/08/09 01:22:57;;;;;;;4.07;1.20;;;;;;;18.56;43.67;98668.13;4992313;28;20370;-75
2022/08/09 01:25:30;;;;;;;;;;;;;;;18.52;43.22;98675.47;4967133;28;20145;-75
2022/08/09 01:28:01;;;;;;;3.40;1.20;;;;;;;18.48;43.29;98677.31;4977421;28;19948;-75
2022/08/09 01:30:37;;;;;;;2.93;1.20;;;;;;;18.44;43.48;98679.16;4961886;28;20059;-75
2022/08/09 01:33:22;;;;;;;2.83;1.20;;;;;;;18.48;43.75;98677.31;4974634;28;20055;-75
2022/08/09 01:35:53;;;;;;;1.95;0.88;;;;;;;18.53;44.03;98674.31;4975240;28;20046;-75
2022/08/09 01:38:24;;;;;;;3.45;1.20;;;;;;;18.51;43.83;98680.19;4977454;28;20065;-75
2022/08/09 01:40:54;;;;;;;;;;;;;;;18.48;43.42;98680.06;4977970;28;20437;-75
2022/08/09 01:43:33;;;;;;;;;;;;;;;18.32;44.50;98672.50;4995389;28;19926;-75
2022/08/09 01:46:21;;;;;;;;;;;;;;;18.36;44.29;98680.06;4976063;28;19921;-75
2022/08/09 01:48:51;;;;;;;;;;;;;;;18.27;44.17;98678.25;4977419;28;19944;-75
2022/08/09 01:51:19;;;;;;;;;;;;;;;18.15;44.63;98678.22;4976602;28;19953;-76
2022/08/09 01:56:43;;;;;;;2.10;1.00;;;;;;;18.31;44.79;98681.09;4987392;28;20074;-75
2022/08/09 01:59:20;;;;;;;;;;;;;;;18.26;44.73;98678.56;4973840;28;20098;-74
2022/08/09 02:01:49;;;;;;;;;;;;;;;18.10;44.73;98681.19;4994512;28;19922;-75
2022/08/09 02:04:26;;;;;;;;;;;;;;;18.15;44.89;98680.16;4977048;28;19921;-75
2022/08/09 02:07:10;;;;;;;;;;;;;;;18.07;45.00;98681.88;4977344;28;19954;-75
2022/08/09 02:09:47;;;;;;;;;;;;;;;18.03;44.99;98681.75;4968854;28;19929;-75
2022/08/09 02:12:27;;;;;;;;;;;;;;;17.98;45.48;98686.69;4976033;28;19929;-75
2022/08/09 02:17:50;;;;;;;;;;;;;;;17.95;45.92;98685.44;4921129;29;21017;-74
2022/08/09 02:20:38;;;;;;;;;;;;;;;17.92;45.52;98685.28;4934937;29;19923;-75
2022/08/09 02:23:07;;;;;;;;;;;;;;;17.78;45.61;98691.09;4926721;29;20009;-75
2022/08/09 02:25:37;;;;;;;;;;;;;;;17.76;45.95;98688.69;4928306;29;19926;-75
2022/08/09 02:28:10;;;;;;;;;;;;;;;17.63;46.17;98694.44;4940110;29;19922;-75
2022/08/09 02:30:41;;;;;;;;;;;;;;;17.63;46.31;98689.78;4935294;29;19922;-74
2022/08/09 02:33:10;;;;;;;;;;;;;;;17.72;46.29;98697.91;4931257;29;19922;-74
2022/08/09 02:35:41;;;;;;;;;;;;;;;17.83;46.42;98695.56;4895711;29;20021;-74
2022/08/09 02:38:29;;;;;;;;;;;;;;;17.58;46.56;98695.50;4915077;29;19923;-75
2022/08/09 02:40:58;;;;;;;;;;;;;;;17.53;46.73;98695.69;4925784;29;20400;-75
2022/08/09 02:43:26;;;;;;;;;;;;;;;17.49;46.93;98697.50;4915148;29;19923;-75
2022/08/09 02:45:56;;;;;;;;;;;;;;;17.43;46.85;98693.38;4914942;29;19931;-75
2022/08/09 02:48:24;;;;;;;;;;;;;;;17.43;46.96;98688.66;4914978;29;19927;-74
2022/08/09 02:50:57;;;;;;;;;;;;;;;17.45;46.84;98693.81;4913050;29;19929;-75
2022/08/09 02:53:26;;;;;;;;;;;;;;;17.41;46.88;98692.88;4937981;28;19922;-75
2022/08/09 02:55:57;;;;;;;;;;;;;;;17.36;47.14;98693.09;4973052;28;19966;-75
2022/08/09 02:58:27;;;;;;;;;;;;;;;17.30;47.12;98692.50;4989683;28;19922;-75
2022/08/09 03:01:07;;;;;;;;;;;;;;;17.23;47.42;98687.56;4968769;28;19922;-75
2022/08/09 03:03:38;;;;;;;;;;;;;;;17.30;47.45;98687.00;4973627;28;19977;-75
2022/08/09 03:06:29;;;;;;;;;;;;;;;17.27;47.61;98688.50;4993879;28;19922;-75
2022/08/09 03:08:59;;;;;;;;;;;;;;;17.23;47.92;98687.56;4979358;28;19928;-74
2022/08/09 03:11:27;;;;;;;;;;;;;;;17.15;47.91;98682.94;4992044;28;19965;-75
2022/08/09 03:14:15;;;;;;;;;;;;;;;17.12;47.81;98686.34;4995386;28;19929;-74
2022/08/09 03:16:48;;;;;;;;;;;;;;;17.14;47.74;98688.75;4975915;28;19929;-75
2022/08/09 03:19:18;;;;;;;;;;;;;;;17.13;47.90;98687.16;4999701;28;19921;-75
2022/08/09 03:22:09;;;;;;;;;;;;;;;17.11;47.87;98695.75;4988836;28;19921;-74
2022/08/09 03:24:39;;;;;;;;;;;;;;;17.11;47.92;98695.75;4972346;28;19992;-74
2022/08/09 03:27:17;;;;;;;;;;;;;;;17.07;48.01;98694.78;4992477;28;19922;-74
2022/08/09 03:29:54;;;;;;;;;;;;;;;16.96;48.16;98704.56;4993426;28;19921;-74
2022/08/09 03:32:26;;;;;;;;;;;;;;;16.98;48.52;98694.03;4990322;28;19922;-73
2022/08/09 03:35:00;;;;;;;;;;;;;;;17.01;48.35;98698.88;4998095;28;19922;-76
2022/08/09 03:37:29;;;;;;;;;;;;;;;17.00;48.43;98709.06;4992874;28;19926;-77
2022/08/09 03:40:17;;;;;;;;;;;;;;;17.01;48.42;98701.63;4995966;28;19921;-74
2022/08/09 03:42:56;;;;;;;;;;;;;;;16.97;48.55;98701.47;4994966;28;19926;-74
2022/08/09 03:45:25;;;;;;;;;;;;;;;16.92;48.68;98701.69;4937428;29;20279;-73
2022/08/09 03:48:15;;;;;;;;;;;;;;;16.98;48.27;98703.06;4938822;29;19942;-73
2022/08/09 03:50:45;;;;;;;;;;;;;;;17.01;48.18;98707.91;4937489;29;19926;-75
2022/08/09 03:53:13;;;;;;;;;;;;;;;16.86;48.60;98711.25;4941644;29;19922;-75
2022/08/09 03:55:42;;;;;;;;;;;;;;;16.87;48.73;98712.03;4898753;29;20359;-74
2022/08/09 03:58:10;;;;;;;;;;;;;;;16.69;49.42;98714.06;4898860;29;19923;-73
2022/08/09 04:01:08;;;;;;;;;;;;;;;16.70;49.31;98718.41;4901761;29;19997;-74
2022/08/09 04:03:40;;;;;;;;;;;;;;;16.67;49.61;98711.69;4931589;28;20017;-73
2022/08/09 04:06:13;;;;;;;;;;;;;;;16.68;49.80;98720.69;4957181;28;19922;-73
2022/08/09 04:08:41;;;;;;;;;;;;;;;16.52;49.85;98716.91;4935687;28;20361;-73
2022/08/09 04:11:13;;;;;;;;;;;;;;;16.60;49.70;98721.53;4955913;28;19922;-74
2022/08/09 04:13:41;;;;;;;;;;;;;;;16.57;49.83;98720.28;4961861;28;20384;-74
2022/08/09 04:16:53;;;;;;;;;;;;;;;16.59;49.72;98728.97;4990678;28;19922;-73
2022/08/09 04:19:24;;;;;;;;;;;;;;;16.53;49.57;98732.25;4993511;28;19970;-74
2022/08/09 04:21:57;;;;;;;;;;;;;;;16.73;49.21;98723.28;5004855;28;19999;-74
2022/08/09 04:24:25;;;;;;;;;;;;;;;16.59;49.58;98728.16;5001217;28;19925;-73
2022/08/09 04:26:53;;;;;;;;;;;;;;;16.70;49.30;98735.69;4983463;28;19955;-74
2022/08/09 04:29:21;;;;;;;;;;;;;;;16.66;49.30;98734.72;4984015;28;19929;-74
2022/08/09 04:31:50;;;;;;;;;;;;;;;16.63;49.06;98735.41;4995449;28;20020;-73
2022/08/09 04:34:18;;;;;;;;;;;;;;;16.71;49.29;98731.03;4999384;28;19928;-73
2022/08/09 04:37:00;;;;;;;;;;;;;;;16.59;49.67;98730.91;4990532;28;19965;-74
2022/08/09 04:39:28;;;;;;;;;;;;;;;16.76;49.61;98739.88;4992560;28;19961;-73
2022/08/09 04:41:58;;;;;;;;;;;;;;;16.79;50.01;98737.63;4975757;28;20321;-73
2022/08/09 04:44:28;;;;;;;;;;;;;;;16.82;50.91;98740.47;4991077;28;20396;-73
2022/08/09 04:46:58;;;;;;;;;;;;;;;16.79;50.00;98746.66;4997139;28;19930;-75
2022/08/09 04:49:36;;;;;;;;;;;;;;;16.85;50.85;98741.78;4977757;28;19921;-73
2022/08/09 04:52:22;;;;;;;;;;;;;;;16.87;51.40;98754.00;4986966;28;19921;-73
2022/08/09 04:54:53;;;;;;;;;;;;;;;16.84;50.63;98749.22;4973820;28;19980;-74
2022/08/09 04:57:21;;;;;;;;;;;;;;;16.87;49.38;98755.97;4974799;28;20005;-73
2022/08/09 04:59:50;;;;;;;;;;;;;;;16.90;49.97;98760.78;4990780;28;19921;-73
2022/08/09 05:02:18;;;;;;;;;;;;;;;16.85;50.17;98758.25;4990953;28;19922;-73
2022/08/09 05:04:46;;;;;;;;;;;;;;;16.90;49.75;98767.09;4971857;28;19936;-75
2022/08/09 05:07:14;;;;;;;;;;;;;;;17.07;49.04;98770.88;4991663;28;19936;-78
2022/08/09 05:09:49;;;;;;;;;;;;;;;17.06;49.77;98769.25;4976806;28;19960;-74
2022/08/09 05:12:17;;;;;;;;;;;;;;;17.03;49.02;98773.47;4994410;28;19985;-74
2022/08/09 05:14:45;;;;;;;;;;;;;;;17.10;49.64;98776.50;4913657;29;20197;-75
2022/08/09 05:17:38;;;;;;;;;;;;;;;17.13;48.92;98775.81;4933944;29;19923;-75
2022/08/09 05:20:27;;;;;;;;;;;;;;;17.15;49.32;98773.56;4921973;29;19923;-74
2022/08/09 05:22:56;;;;;;;;;;;;;;;17.28;48.68;98782.66;4931966;29;20317;-74
2022/08/09 05:25:45;;;;;;;;;;;;;;;17.32;49.65;98785.56;4932686;29;19930;-74
2022/08/09 05:28:18;;;;;;;;;;;;;;;17.34;48.83;98780.53;4921203;29;19929;-74
2022/08/09 05:34:02;;;;;;;;;;;;;;;17.42;48.99;98785.97;4940319;28;20017;-74
2022/08/09 05:36:30;;;;;;;;;;;;;;;17.66;47.57;98790.75;4954742;28;20008;-75
2022/08/09 05:38:58;;;;;;;;;;;;;;;17.50;48.74;98789.75;4952415;28;19961;-75
2022/08/09 05:41:27;;;;;;;;;;;;;;;17.57;48.22;98790.03;4982543;28;20025;-75
2022/08/09 05:43:55;;;;;;;;;;;;;;;17.61;49.09;98796.47;4962823;28;19929;-78
2022/08/09 05:46:22;;;;;;;;;;;;;;;17.67;48.26;98789.63;4958446;28;19966;-76
2022/08/09 05:48:51;;;;;;;;;;;;;;;17.68;48.39;98791.22;4969692;28;19929;-77
2022/08/09 05:51:26;;;;;;;;;;;;;;;17.77;48.10;98789.25;4972793;28;19930;-76
2022/08/09 05:54:12;;;;;;;;;;;;;;;17.83;47.12;98792.56;4963547;28;19928;-76
2022/08/09 05:56:47;;;;;;;;;;;;;;;17.93;46.74;98791.38;4961996;28;19997;-77
2022/08/09 05:59:22;;;;;;;;;;;;;;;17.97;47.65;98795.03;4960761;28;20446;-76
2022/08/09 06:01:52;;;;;;;;;;;;;;;18.05;47.83;98788.66;4943433;28;20395;-77
2022/08/09 06:04:20;;;;;;;;;;;;;;;18.12;46.65;98794.41;4983806;28;20023;-77
2022/08/09 06:06:50;;;;;;;;;;;;;;;18.14;46.27;98792.13;4971251;28;19922;-76
2022/08/09 06:12:25;;;;;;;;;;;;;;;18.32;46.29;98801.81;4966914;28;19922;-76
2022/08/09 06:14:56;;;;;;;;;;;;;;;18.54;45.67;98805.28;4883397;29;19922;-76
2022/08/09 06:17:27;;;;;;;;;;;;;;;18.69;45.21;98809.31;4900747;29;19926;-76
2022/08/09 06:20:07;;;;;;;;;;;;;;;18.68;45.32;98805.75;4883596;29;19928;-76
2022/08/09 06:22:35;;;;;;;;;;;;;;;18.78;45.17;98810.00;4878919;29;19923;-76
2022/08/09 06:25:04;;;;;;;;;;;;;;;18.96;44.10;98822.44;4890937;29;20006;-76
2022/08/09 06:27:36;;;;;;;;;;;;;;;18.92;45.24;98821.50;4890991;29;20003;-76
2022/08/09 06:30:09;;;;;;;;;;;;;;;19.07;44.92;98822.78;4928578;29;20417;-76
2022/08/09 06:32:41;;;;;;;;;;;;;;;19.08;44.39;98832.63;4948976;28;19926;-76
2022/08/09 06:35:27;;;;;;;;;;;;;;;19.14;44.80;98834.00;4964542;28;19957;-76
2022/08/09 06:38:15;;;;;;;;;;;;;;;19.20;44.94;98831.81;4963712;28;19922;-75
2022/08/09 06:40:43;;;;;;;;;;;;;;;19.29;44.00;98833.31;4902686;29;19923;-76
2022/08/09 06:43:12;;;;;;;;;;;;;;;19.46;42.84;98829.47;4879193;29;20302;-76
2022/08/09 06:45:40;;;;;;;;;;;;;;;19.60;43.25;98824.44;4902601;29;19977;-76
2022/08/09 06:48:28;;;;;;;;;;;;;;;19.56;44.52;98833.72;4880079;29;19923;-77
2022/08/09 06:51:00;;;;;;;;;;;;;;;19.60;44.48;98831.88;4883091;29;19927;-77
2022/08/09 06:53:30;;;;;;;2.90;1.03;;;;;;;19.68;44.24;98828.19;4878330;29;19923;-77
2022/08/09 06:56:08;;;;;;;3.70;1.80;;;;;;;19.97;42.60;98829.78;4892941;29;20939;-77
2022/08/09 06:58:39;;;;;;;3.67;1.60;;;;;;;19.84;42.34;98829.06;4926300;28;20428;-77
2022/08/09 07:01:27;;;;;;;;;;;;;;;20.02;42.06;98835.06;4964733;28;20422;-76
2022/08/09 07:04:15;;;;;;;4.43;1.40;;;;;;;20.05;42.97;98836.34;4946500;28;20443;-77
2022/08/09 07:06:47;;;;;;;4.13;1.50;;;;;;;20.55;41.18;98829.41;4954924;28;20443;-77
2022/08/09 07:09:45;;;;;;;5.35;1.33;;;;;;;20.52;40.76;98827.38;4955840;28;20472;-77
2022/08/09 07:12:25;;;;;;;2.95;1.40;;;;;;;20.48;42.08;98832.81;4949599;28;20438;-77
2022/08/09 07:15:10;;;;;;;;;;;;;;;20.75;41.04;98824.81;4955492;28;20046;-77
2022/08/09 07:17:58;;;;;;;;;;;;;;;20.70;41.92;98830.59;4955820;28;19930;-77
2022/08/09 07:20:29;;;;;;;;;;;;;;;20.79;41.65;98828.47;4981184;28;19941;-77
2022/08/09 07:22:57;;;;;;;;;;;;;;;20.90;41.24;98832.28;4977798;28;20265;-77
2022/08/09 07:25:52;;;;;;;;;;;;;;;21.03;40.34;98839.31;4965759;28;19989;-77
2022/08/09 07:28:29;;;;;;;;;;;;;;;21.25;39.25;98834.28;4975465;28;19922;-78
2022/08/09 07:30:59;;;;;;;2.20;0.77;;;;;;;21.16;39.24;98835.28;4996311;28;20372;-77
2022/08/09 07:36:22;;;;;;;2.38;1.10;;;;;;;21.26;39.30;98836.72;5003357;28;20105;-77
2022/08/09 07:38:50;;;;;;;;;;;;;;;21.53;39.04;98845.22;4980164;28;20161;-77
2022/08/09 07:41:29;;;;;;;;;;;;;;;21.61;38.77;98841.44;4987949;28;20176;-77
2022/08/09 07:44:00;;;;;;;;;;;;;;;21.66;39.19;98838.41;4980677;28;19929;-77
2022/08/09 07:46:29;;;;;;;;;;;;;;;21.66;38.73;98833.66;4977471;28;19922;-77
2022/08/09 07:48:59;;;;;;;;;;;;;;;21.91;37.46;98836.97;4982406;28;19940;-77
2022/08/09 07:51:27;;;;;;;;;;;;;;;21.82;38.89;98839.13;4994838;28;19928;-77
2022/08/09 07:54:40;;;;;;;;;;;;;;;21.99;38.00;98843.44;4993359;28;20358;-77
2022/08/09 07:57:09;;;;;;;;;;;;;;;22.16;37.22;98850.53;4994498;28;19922;-77
2022/08/09 08:00:03;;;;;;;;;;;;;;;22.10;35.57;98841.69;4980764;28;19929;-77
2022/08/09 08:02:40;;;;;;;;;;;;;;;22.23;37.32;98848.69;4996435;28;19921;-77
2022/08/09 08:05:34;;;;;;;;;;;;;;;22.37;36.44;98844.59;4996487;28;19977;-77
2022/08/09 08:08:21;;;;;;;;;;;;;;;22.55;35.57;98844.94;4980974;28;19921;-76
2022/08/09 08:11:09;;;;;;;;;;;;;;;22.56;35.76;98846.53;4993767;28;19922;-76
2022/08/09 08:13:57;;;;;;;;;;;;;;;22.59;35.15;98831.97;4987548;28;19921;-76
2022/08/09 08:16:24;;;;;;;;;;;;;;;22.77;34.30;98841.38;4991953;28;19971;-76
2022/08/09 08:19:00;;;;;;;;;;;;;;;22.77;34.87;98846.91;4982429;28;19922;-74
2022/08/09 08:21:30;;;;;;;;;;;;;;;22.83;34.70;98844.63;4995499;28;19953;-74
2022/08/09 08:23:58;;;;;;;;;;;;;;;22.83;35.73;98839.09;4991851;28;19922;-76
2022/08/09 08:26:27;;;;;;;;;;;;;;;22.95;34.37;98836.94;4975438;28;20412;-76
2022/08/09 08:29:33;;;;;;;;;;;;;;;23.06;34.39;98841.84;4994654;28;19922;-75
2022/08/09 08:32:37;;;;;;;;;;;;;;;23.10;32.95;98842.72;4994572;28;19928;-76
2022/08/09 08:35:13;;;;;;;;;;;;;;;23.15;32.97;98836.88;4969693;28;21264;-77
2022/08/09 08:37:47;;;;;;;;;;;;;;;23.28;34.05;98843.81;4993667;28;20000;-74
2022/08/09 08:40:29;;;;;;;;;;;;;;;23.26;33.80;98846.13;4972364;28;20285;-76
2022/08/09 08:42:57;;;;;;;;;;;;;;;23.35;34.08;98843.91;4997699;28;19960;-76
2022/08/09 08:45:27;;;;;;;;;;;;;;;23.49;32.68;98852.44;5007872;28;19988;-76
2022/08/09 08:48:04;;;;;;;;;;;;;;;23.50;33.23;98845.72;4978709;28;20004;-77
2022/08/09 08:50:34;;;;;;;;;;;;;;;23.61;32.28;98845.06;4982503;28;19932;-76
2022/08/09 08:53:02;;;;;;;;;;;;;;;23.72;33.34;98846.84;4985558;28;20395;-76
2022/08/09 08:55:30;;;;;;;;;;;;;;;23.61;31.44;98847.84;4978371;28;19933;-75
2022/08/09 08:57:59;;;;;;;;;;;;;;;23.69;32.69;98847.56;4995178;28;19929;-76
2022/08/09 09:00:27;;;;;;;;;;;;;;;23.67;32.60;98849.16;4992227;28;20012;-76
2022/08/09 09:02:57;;;;;;;;;;;;;;;23.59;31.96;98852.94;4999211;28;19961;-76
2022/08/09 09:05:31;;;;;;;;;;;;;;;23.55;31.93;98843.81;4977391;28;19936;-77
2022/08/09 09:08:20;;;;;;;;;;;;;;;23.68;32.06;98848.75;4991869;28;19926;-76
2022/08/09 09:11:03;;;;;;;;;;;;;;;23.73;31.39;98842.88;4993231;28;20006;-76
2022/08/09 09:13:38;;;;;;;;;;;;;;;23.87;32.08;98847.81;4981731;28;19960;-78
2022/08/09 09:16:14;;;;;;;;;;;;;;;23.91;31.63;98832.00;4983885;28;19926;-77
2022/08/09 09:18:45;;;;;;;;;;;;;;;23.96;33.52;98851.09;4977609;28;19930;-76
2022/08/09 09:21:22;;;;;;;;;;;;;;;24.00;33.13;98837.28;4987480;28;19948;-77
2022/08/09 09:23:54;;;;;;;;;;;;;;;24.12;33.13;98848.13;4934510;29;19959;-75
2022/08/09 09:26:25;;;;;;;;;;;;;;;24.13;30.66;98841.41;4934536;29;20025;-77
2022/08/09 09:28:53;;;;;;;;;;;;;;;24.11;30.90;98840.16;4932084;29;19935;-76
2022/08/09 09:31:31;;;;;;;;;;;;;;;24.14;32.34;98834.66;4933168;28;19927;-78
2022/08/09 09:34:19;;;;;;;;;;;;;;;24.27;31.45;98837.97;4918326;29;20043;-76
2022/08/09 09:36:47;;;;;;;;;;;;;;;24.36;31.55;98832.97;4936014;29;20071;-77
2022/08/09 09:39:22;;;;;;;;;;;;;;;24.25;31.19;98827.25;4944173;29;20382;-75
2022/08/09 09:42:09;;;;;;;;;;;;;;;24.31;31.83;98828.50;4956135;28;19925;-75
2022/08/09 09:44:37;;;;;;;;;;;;;;;24.48;30.45;98831.88;4977182;28;19933;-76
2022/08/09 09:47:06;;;;;;;;;;;;;;;24.51;29.93;98837.47;4991803;28;19981;-76
2022/08/09 09:49:37;;;;;;;;;;;;;;;24.53;30.16;98837.09;4982602;28;19932;-74
2022/08/09 09:52:26;;;;;;;;;;;;;;;24.55;30.64;98830.00;4970741;28;19995;-74
2022/08/09 09:55:08;;;;;;;;;;;;;;;24.52;31.10;98830.75;4968410;28;19976;-74
2022/08/09 09:57:56;;;;;;;;;;;;;;;24.65;29.86;98828.47;4970932;28;19933;-74
2022/08/09 10:00:31;;;;;;;;;;;;;;;24.54;29.77;98828.38;4980761;28;20025;-73
2022/08/09 10:03:01;;;;;;;;;;;;;;;24.70;29.97;98827.31;4988576;28;19926;-73
2022/08/09 10:05:35;;;;;;;;;;;;;;;24.65;30.37;98825.69;4986382;28;20017;-73
2022/08/09 10:08:24;;;;;;;;;;;;;;;24.69;30.50;98822.94;4989382;28;19933;-73
2022/08/09 10:10:55;;;;;;;;;;;;;;;24.76;29.63;98820.22;4989057;28;20016;-73
2022/08/09 10:13:30;;;;;;;;;;;;;;;24.78;30.30;98824.22;4971544;28;19932;-73
2022/08/09 10:16:14;;;;;;;;;;;;;;;24.91;30.06;98812.81;4991567;28;19969;-73
2022/08/09 10:19:02;;;;;;;;;;;;;;;24.86;29.40;98810.38;4991495;28;19926;-74
2022/08/09 10:21:31;;;;;;;;;;;;;;;24.86;29.06;98808.41;4951940;28;19926;-73
2022/08/09 10:24:00;;;;;;;;;;;;;;;24.88;29.53;98808.84;4970178;28;19932;-74
2022/08/09 10:26:32;;;;;;;;;;;;;;;25.05;29.09;98810.94;4952438;28;19933;-73
2022/08/09 10:28:59;;;;;;;;;;;;;;;25.03;29.24;98816.06;4961899;28;19926;-73
2022/08/09 10:31:51;;;;;;;;;;;;;;;24.90;28.96;98808.44;4968585;28;19933;-73
2022/08/09 10:34:39;;;;;;;;;;;;;;;24.67;29.11;98811.44;4965806;28;19926;-73
2022/08/09 10:37:07;;;;;;;;;;;;;;;24.78;29.26;98807.56;4967680;28;20392;-73
2022/08/09 10:39:36;;;;;;;;;;;;;;;24.93;29.04;98800.16;4979678;28;19925;-73
2022/08/09 10:42:09;;;;;;;;;;;;;;;24.98;29.44;98794.22;4980279;28;19950;-74
2022/08/09 10:44:36;;;;;;;;;;;;;;;25.05;29.72;98797.03;4977828;28;19926;-73
2022/08/09 10:47:15;;;;;;;;;;;;;;;25.10;30.05;98793.13;4999671;28;20012;-73
2022/08/09 10:50:07;;;;;;;;;;;;;;;25.10;30.08;98795.13;4998752;28;19926;-74
2022/08/09 10:52:42;;;;;;;;;;;;;;;25.15;28.63;98797.53;4975001;28;20330;-73
2022/08/09 10:55:21;;;;;;;;;;;;;;;25.17;29.21;98787.63;4995204;28;19932;-73
2022/08/09 10:57:50;;;;;;;;;;;;;;;25.20;29.79;98783.28;4997821;28;19957;-73
2022/08/09 11:00:39;;;;;;;;;;;;;;;25.32;29.53;98782.94;4972890;28;20388;-74
2022/08/09 11:03:21;;;;;;;;;;;;;;;25.41;28.46;98774.22;4976832;28;19957;-73
2022/08/09 11:06:20;;;;;;;;;;;;;;;25.41;29.88;98777.84;4975636;28;20296;-73
2022/08/09 11:08:49;;;;;;;;;;;;;;;25.47;28.06;98770.72;4976834;28;20344;-73
2022/08/09 11:11:18;;;;;;;;;;;;;;;25.47;28.00;98767.13;4990338;28;19934;-73
2022/08/09 11:13:47;;;;;;;;;;;;;;;25.51;28.73;98777.06;4988567;28;19929;-73
2022/08/09 11:16:31;;;;;;;;;;;;;;;25.44;28.00;98776.25;4990223;28;19926;-73
2022/08/09 11:19:02;;;;;;;;;;;;;;;25.41;28.54;98777.84;4997401;28;19926;-73
2022/08/09 11:21:50;;;;;;;;;;;;;;;25.42;28.60;98782.22;4973684;28;19933;-73
2022/08/09 11:24:24;;;;;;;;;;;;;;;25.59;27.03;98778.72;4991313;28;20013;-73
2022/08/09 11:26:54;;;;;;;;;;;;;;;25.63;27.46;98783.50;4977240;28;19930;-75
2022/08/09 11:29:41;;;;;;;;;;;;;;;25.63;27.71;98780.72;4979334;28;19932;-75
2022/08/09 11:32:43;;;;;;;;;;;;;;;25.66;27.63;98777.94;4990592;28;19969;-75
2022/08/09 11:35:15;;;;;;;;;;;;;;;25.66;27.70;98783.50;4986623;28;20415;-75
2022/08/09 11:37:45;;;;;;;6.05;1.80;;;;;;;25.67;27.99;98773.16;4980309;28;19934;-75
2022/08/09 11:40:17;;;;;;;;;;;;;;;25.69;27.35;98781.94;4990797;28;20801;-75
2022/08/09 11:42:48;;;;;;;;;;;;;;;25.90;27.40;98773.69;4973766;28;20403;-74
2022/08/09 11:45:20;;;;;;;;;;;;;;;25.75;27.60;98770.06;4990904;28;20047;-75
2022/08/09 11:47:50;;;;;;;;;;;;;;;25.90;27.83;98773.69;4977021;28;19932;-75
2022/08/09 11:50:20;;;;;;;;;;;;;;;25.86;27.63;98779.25;4973361;28;19936;-75
2022/08/09 11:53:18;;;;;;;;;;;;;;;25.95;27.04;98772.53;4992195;28;19936;-76
2022/08/09 11:56:35;;;;;;;;;;;;;;;25.94;26.91;98765.34;4974428;28;19943;-75
2022/08/09 11:59:10;;;;;;;;;;;;;;;25.81;27.08;98762.13;4959103;28;19936;-75
2022/08/09 12:01:40;;;;;;;;;;;;;;;25.99;27.96;98757.41;4972689;28;19932;-76
2022/08/09 12:04:29;;;;;;;;;;;;;;;26.08;27.48;98757.84;4992790;28;19932;-76
2022/08/09 12:07:04;;;;;;;;;;;;;;;26.29;27.78;98753.50;4915800;29;19937;-77
2022/08/09 12:09:34;;;;;;;;;;;;;;;26.23;28.54;98753.09;4918067;29;19933;-76
2022/08/09 12:12:04;;;;;;;;;;;;;;;26.27;27.24;98739.19;4906206;29;19945;-75
2022/08/09 12:14:33;;;;;;;;;;;;;;;26.42;26.76;98751.97;4916492;29;20382;-75
2022/08/09 12:17:12;;;;;;;;;;;;;;;26.55;26.91;98746.78;4917710;29;19973;-75
2022/08/09 12:19:55;;;;;;;;;;;;;;;26.40;27.83;98754.31;4921587;29;19957;-75
2022/08/09 12:22:26;;;;;;;;;;;;;;;26.30;27.71;98764.25;4915129;29;20067;-76
2022/08/09 12:25:09;;;;;;;;;;;;;;;26.21;27.80;98758.28;4937523;28;19932;-76
2022/08/09 12:27:37;;;;;;;;;;;;;;;26.30;27.85;98755.09;4991224;28;20067;-76
2022/08/09 12:30:49;;;;;;;;;;;;;;;26.24;27.88;98745.53;4980329;28;19966;-76
2022/08/09 12:33:24;;;;;;;;;;;;;;;26.35;26.54;98751.91;4983917;28;19922;-76
2022/08/09 12:36:04;;;;;;;;;;;;;;;26.52;26.78;98740.00;4992742;28;19952;-76
2022/08/09 12:38:33;;;;;;;;;;;;;;;26.68;26.65;98741.59;4976437;28;20067;-76
2022/08/09 12:41:05;;;;;;;;;;;;;;;26.69;27.80;98740.44;4976542;28;19922;-76
2022/08/09 12:43:34;;;;;;;;;;;;;;;26.50;27.84;98730.47;4993440;28;19926;-76
2022/08/09 12:46:21;;;;;;;;;;;;;;;26.75;26.90;98731.25;4988833;28;20440;-76
2022/08/09 12:48:49;;;;;;;;;;;;;;;26.82;26.32;98747.97;4976168;28;19987;-76
2022/08/09 12:51:19;;;;;;;;;;;;;;;26.53;25.90;98746.41;5002688;28;19938;-77
2022/08/09 12:54:07;;;;;;;;;;;;;;;26.54;25.52;98726.50;4979180;28;19936;-76
2022/08/09 12:56:49;;;;;;;;;;;;;;;26.71;25.98;98729.66;4983203;28;19933;-76
2022/08/09 12:59:21;;;;;;;;;;;;;;;26.75;26.28;98727.69;4998871;28;20390;-76
2022/08/09 13:02:00;;;;;;;;;;;;;;;26.71;26.83;98727.66;5003442;28;19998;-76
2022/08/09 13:04:31;;;;;;;;;;;;;;;26.82;27.08;98716.50;4997225;28;20049;-76
2022/08/09 13:07:12;;;;;;;;;;;;;;;26.82;26.43;98724.88;4976830;28;19922;-76
2022/08/09 13:09:40;;;;;;;;;;;;;;;26.93;26.33;98714.50;4979815;28;19933;-76
2022/08/09 13:12:10;;;;;;;;;;;;;;;26.87;26.03;98716.09;4979669;28;20311;-75
2022/08/09 13:14:38;;;;;;;;;;;;;;;26.82;26.30;98706.16;4980654;28;19922;-75
2022/08/09 13:17:42;;;;;;;;;;;;;;;26.76;26.16;98698.59;4993030;28;19921;-76
2022/08/09 13:20:34;;;;;;;;;;;;;;;26.79;25.90;98703.34;4991393;28;19928;-78
2022/08/09 13:23:05;;;;;;;;;;;;;;;27.06;26.36;98692.53;4992464;28;19960;-76
2022/08/09 13:25:53;;;;;;;;;;;;;;;27.15;26.39;98699.31;4975849;28;19975;-75
2022/08/09 13:28:23;;;;;;;;;;;;;;;27.23;25.62;98702.91;4976119;28;19921;-77
2022/08/09 13:31:06;;;;;;;;;;;;;;;27.25;25.58;98694.13;4987428;28;20280;-75
2022/08/09 13:33:55;;;;;;;;;;;;;;;27.37;25.98;98693.66;4973390;28;19941;-76
2022/08/09 13:36:23;;;;;;;;;;;;;;;27.41;26.00;98698.03;4994045;28;20414;-76
2022/08/09 13:39:10;;;;;;;;;;;;;;;27.56;25.56;98695.19;4997903;28;19952;-75
2022/08/09 13:42:02;;;;;;;;;;;;;;;27.51;25.76;98693.63;4998002;28;20023;-75